Time;durP1;ratioP1;P1;durP2;ratioP2;P2;SDS_P1;SDS_P2;PMS_P1;PMS_P2;Temp;Humidity;BMP_temperature;BMP_pressure;BME280_temperature;BME280_humidity;BME280_pressure;Samples;Min_cycle;Max_cycle;Signal;HPM_P1;HPM_P2
2021/03/24 00:01:18;;;;;;;2.00;0.50;;;1.80;99.90;;;;;;5090845;28;20168;-70
2021/03/24 00:03:44;;;;;;;1.90;0.40;;;1.80;99.90;;;;;;5094748;28;20227;-70
2021/03/24 00:06:10;;;;;;;1.90;0.40;;;1.70;99.90;;;;;;5094237;28;20199;-69
2021/03/24 00:08:36;;;;;;;1.90;0.50;;;1.80;99.90;;;;;;5094464;28;20414;-69
2021/03/24 00:11:05;;;;;;;1.83;0.50;;;1.70;99.90;;;;;;5093240;28;20203;-68
2021/03/24 00:13:30;;;;;;;2.75;1.70;;;1.70;99.90;;;;;;5092994;28;20176;-71
2021/03/24 00:15:56;;;;;;;1.80;0.43;;;1.70;99.90;;;;;;5093597;28;20684;-70
2021/03/24 00:18:22;;;;;;;1.90;1.13;;;1.70;99.90;;;;;;5094564;28;20422;-70
2021/03/24 00:20:49;;;;;;;1.60;0.50;;;1.70;99.90;;;;;;5092562;28;20834;-69
2021/03/24 00:23:15;;;;;;;1.70;0.50;;;1.70;99.90;;;;;;5094477;28;20440;-68
2021/03/24 00:25:41;;;;;;;1.50;0.40;;;1.70;99.90;;;;;;5092252;28;20208;-70
2021/03/24 00:28:09;;;;;;;1.53;0.40;;;1.70;99.90;;;;;;5093965;28;20579;-70
2021/03/24 00:30:38;;;;;;;1.60;0.52;;;1.70;99.90;;;;;;5093931;28;20956;-68
2021/03/24 00:33:05;;;;;;;1.98;1.45;;;1.70;99.90;;;;;;5094161;28;20657;-69
2021/03/24 00:35:31;;;;;;;1.80;1.60;;;1.60;99.90;;;;;;5093360;28;20189;-69
2021/03/24 00:37:57;;;;;;;1.90;0.80;;;1.50;99.90;;;;;;5094295;28;20219;-70
2021/03/24 00:40:28;;;;;;;1.30;0.40;;;1.50;99.90;;;;;;5093867;28;20823;-69
2021/03/24 00:42:54;;;;;;;1.20;0.30;;;1.40;99.90;;;;;;5093902;28;20175;-68
2021/03/24 00:45:20;;;;;;;1.20;0.40;;;1.40;99.90;;;;;;5093582;28;20184;-70
2021/03/24 00:47:46;;;;;;;1.30;0.60;;;1.30;99.90;;;;;;5094111;28;20916;-71
2021/03/24 00:50:17;;;;;;;1.17;0.40;;;1.30;99.90;;;;;;5093071;28;20172;-69
2021/03/24 00:52:44;;;;;;;1.10;0.40;;;1.30;99.90;;;;;;5094096;28;20164;-70
2021/03/24 00:55:10;;;;;;;1.00;0.40;;;1.30;99.90;;;;;;5091405;28;20200;-71
2021/03/24 00:57:36;;;;;;;0.93;0.40;;;1.20;99.90;;;;;;5093802;28;20172;-69
2021/03/24 01:00:05;;;;;;;0.90;0.50;;;1.20;99.90;;;;;;5093593;28;20187;-70
2021/03/24 01:02:30;;;;;;;0.90;0.40;;;1.20;99.90;;;;;;5093988;28;20642;-70
2021/03/24 01:04:57;;;;;;;0.80;0.40;;;1.10;99.90;;;;;;5093009;28;20185;-70
2021/03/24 01:07:23;;;;;;;0.80;0.50;;;1.10;99.90;;;;;;5092193;28;20186;-72
2021/03/24 01:09:48;;;;;;;0.80;0.50;;;1.10;99.90;;;;;;5093506;28;20248;-69
2021/03/24 01:12:14;;;;;;;0.60;0.40;;;1.10;99.90;;;;;;5093531;28;20278;-71
2021/03/24 01:14:40;;;;;;;0.90;0.80;;;1.00;99.90;;;;;;5093003;28;20603;-70
2021/03/24 01:17:06;;;;;;;0.60;0.40;;;1.00;99.90;;;;;;5093337;28;20666;-69
2021/03/24 01:19:32;;;;;;;0.60;0.40;;;1.00;99.90;;;;;;5093448;28;20203;-70
2021/03/24 01:21:58;;;;;;;0.50;0.37;;;1.00;99.90;;;;;;5095073;28;20176;-70
2021/03/24 01:24:23;;;;;;;0.80;0.80;;;1.00;99.90;;;;;;5093801;28;20414;-70
2021/03/24 01:26:49;;;;;;;0.50;0.40;;;1.00;99.90;;;;;;5092657;28;20478;-72
2021/03/24 01:29:14;;;;;;;0.50;0.50;;;1.00;99.90;;;;;;5091939;28;20176;-70
2021/03/24 01:31:40;;;;;;;0.40;0.40;;;1.00;99.90;;;;;;5093516;28;20199;-68
2021/03/24 01:34:06;;;;;;;0.40;0.40;;;0.90;99.90;;;;;;5092678;28;20259;-70
2021/03/24 01:36:32;;;;;;;0.43;0.43;;;0.90;99.90;;;;;;5093245;28;20261;-71
2021/03/24 01:38:57;;;;;;;0.40;0.40;;;0.80;99.90;;;;;;5091884;28;20183;-69
2021/03/24 01:41:25;;;;;;;0.40;0.40;;;0.90;99.90;;;;;;5092116;28;20226;-69
2021/03/24 01:43:51;;;;;;;0.40;0.40;;;0.90;99.90;;;;;;5092721;28;20204;-69
2021/03/24 01:46:20;;;;;;;0.40;0.40;;;0.80;99.90;;;;;;5093308;28;20216;-68
2021/03/24 01:48:48;;;;;;;0.65;0.65;;;0.70;99.90;;;;;;5092796;28;20264;-70
2021/03/24 01:51:17;;;;;;;0.30;0.30;;;0.80;99.90;;;;;;5093360;28;20558;-69
2021/03/24 01:53:43;;;;;;;0.40;0.40;;;0.70;99.90;;;;;;5092836;28;20256;-68
2021/03/24 01:56:11;;;;;;;2.30;1.47;;;0.70;99.90;;;;;;5093099;28;20284;-70
2021/03/24 01:58:38;;;;;;;0.50;0.50;;;0.60;99.90;;;;;;5092811;28;20414;-68
2021/03/24 02:01:07;;;;;;;0.40;0.40;;;0.60;99.90;;;;;;5091771;28;20585;-70
2021/03/24 02:03:34;;;;;;;1.48;1.40;;;0.60;99.90;;;;;;5092882;28;20176;-69
2021/03/24 02:06:08;;;;;;;0.32;0.32;;;0.60;99.90;;;;;;5093039;28;20257;-69
2021/03/24 02:08:38;;;;;;;0.40;0.40;;;0.50;99.90;;;;;;5093225;28;20993;-68
2021/03/24 02:11:25;;;;;;;0.40;0.40;;;0.50;99.90;;;;;;5093258;28;20196;-68
2021/03/24 02:13:54;;;;;;;0.82;0.82;;;0.50;99.90;;;;;;5090778;28;20222;-68
2021/03/24 02:16:20;;;;;;;0.40;0.40;;;0.40;99.90;;;;;;5092696;28;20230;-68
2021/03/24 02:18:49;;;;;;;0.50;0.50;;;0.40;99.90;;;;;;5092346;28;20211;-69
2021/03/24 02:21:23;;;;;;;0.40;0.40;;;0.40;99.90;;;;;;5092985;28;20190;-68
2021/03/24 02:24:01;;;;;;;0.40;0.40;;;0.40;99.90;;;;;;5092453;28;20172;-69
2021/03/24 02:26:36;;;;;;;0.30;0.30;;;0.40;99.90;;;;;;5091548;28;20279;-68
2021/03/24 02:29:05;;;;;;;0.40;0.40;;;0.40;99.90;;;;;;5093002;28;20233;-69
2021/03/24 02:31:34;;;;;;;0.32;0.32;;;0.40;99.90;;;;;;5092902;28;20207;-68
2021/03/24 02:34:05;;;;;;;0.40;0.40;;;0.30;99.90;;;;;;5091847;28;20164;-68
2021/03/24 02:36:32;;;;;;;19.15;2.17;;;0.40;99.90;;;;;;5092784;28;20225;-70
2021/03/24 02:39:01;;;;;;;0.40;0.40;;;0.40;99.90;;;;;;5093769;28;20183;-69
2021/03/24 02:41:28;;;;;;;0.40;0.40;;;0.40;99.90;;;;;;5096432;28;20692;-69
2021/03/24 02:43:54;;;;;;;0.40;0.40;;;0.40;99.90;;;;;;5095827;28;20263;-69
2021/03/24 02:46:22;;;;;;;0.50;0.50;;;0.40;99.90;;;;;;5096233;28;20600;-69
2021/03/24 02:48:48;;;;;;;0.40;0.40;;;0.30;99.90;;;;;;5095634;28;20237;-70
2021/03/24 02:51:19;;;;;;;1.30;1.30;;;0.30;99.90;;;;;;5096281;28;20235;-69
2021/03/24 02:53:46;;;;;;;0.40;0.40;;;0.30;99.90;;;;;;5095599;28;20169;-68
2021/03/24 02:56:12;;;;;;;0.30;0.30;;;0.30;99.90;;;;;;5096258;28;20694;-69
2021/03/24 02:58:38;;;;;;;0.40;0.40;;;0.30;99.90;;;;;;5095870;28;20168;-68
2021/03/24 03:01:15;;;;;;;0.63;0.63;;;0.30;99.90;;;;;;5096204;28;20527;-70
2021/03/24 03:03:46;;;;;;;0.55;0.55;;;0.20;99.90;;;;;;5095270;28;20180;-69
2021/03/24 03:06:15;;;;;;;7.82;2.92;;;0.30;99.90;;;;;;5095901;28;20599;-67
2021/03/24 03:09:00;;;;;;;0.60;0.60;;;0.30;99.90;;;;;;5095572;28;20557;-69
2021/03/24 03:11:51;;;;;;;0.50;0.50;;;0.30;99.90;;;;;;5095299;28;20210;-68
2021/03/24 03:14:48;;;;;;;0.40;0.40;;;0.30;99.90;;;;;;5095214;28;20173;-70
2021/03/24 03:17:58;;;;;;;0.40;0.40;;;0.20;99.90;;;;;;5095302;28;20231;-68
2021/03/24 03:20:31;;;;;;;0.32;0.32;;;0.10;99.90;;;;;;5033634;28;20171;-69
2021/03/24 03:23:02;;;;;;;0.30;0.30;;;0.20;99.90;;;;;;5088282;28;20184;-68
2021/03/24 03:25:32;;;;;;;0.35;0.35;;;0.20;99.90;;;;;;5095036;28;20569;-69
2021/03/24 03:28:00;;;;;;;0.30;0.30;;;0.20;99.90;;;;;;5095407;28;20172;-68
2021/03/24 03:30:30;;;;;;;0.30;0.30;;;0.20;99.90;;;;;;5095427;28;20261;-69
2021/03/24 03:33:00;;;;;;;0.30;0.30;;;0.10;99.90;;;;;;5093614;28;20302;-69
2021/03/24 03:35:26;;;;;;;0.40;0.40;;;0.10;99.90;;;;;;5094959;28;20288;-68
2021/03/24 03:37:56;;;;;;;0.30;0.30;;;0.10;99.90;;;;;;5094999;28;20168;-69
2021/03/24 03:40:24;;;;;;;0.60;0.60;;;0.10;99.90;;;;;;5095361;28;20168;-69
2021/03/24 03:42:51;;;;;;;0.40;0.40;;;0.10;99.90;;;;;;5095120;28;20554;-69
2021/03/24 03:45:17;;;;;;;0.40;0.40;;;0.00;99.90;;;;;;5093494;28;20226;-67
2021/03/24 03:47:44;;;;;;;0.30;0.30;;;0.00;99.90;;;;;;5093308;28;20168;-69
2021/03/24 03:50:15;;;;;;;0.40;0.40;;;0.00;99.90;;;;;;5094466;28;20622;-69
2021/03/24 03:53:01;;;;;;;0.30;0.30;;;0.00;99.90;;;;;;5093559;28;20199;-68
2021/03/24 03:55:33;;;;;;;0.30;0.30;;;0.00;99.90;;;;;;5094269;28;20546;-70
2021/03/24 03:58:06;;;;;;;1.13;1.10;;;0.00;99.90;;;;;;5094698;28;20251;-70
2021/03/24 04:00:41;;;;;;;0.68;0.68;;;-0.10;99.90;;;;;;5094975;28;20171;-70
2021/03/24 04:03:11;;;;;;;0.40;0.40;;;-0.10;99.90;;;;;;5094693;28;20255;-68
2021/03/24 04:05:50;;;;;;;0.50;0.50;;;-0.10;99.90;;;;;;5094464;28;20218;-67
2021/03/24 04:08:27;;;;;;;0.30;0.30;;;-0.10;99.90;;;;;;5093400;28;20180;-69
2021/03/24 04:11:00;;;;;;;0.30;0.30;;;-0.10;99.90;;;;;;5095744;28;20560;-71
2021/03/24 04:13:29;;;;;;;0.30;0.30;;;0.00;99.90;;;;;;5098710;28;20255;-66
2021/03/24 04:15:56;;;;;;;0.30;0.30;;;0.10;99.90;;;;;;5100007;28;20555;-68
2021/03/24 04:18:33;;;;;;;1.90;1.83;;;0.00;99.90;;;;;;5101044;28;20226;-70
2021/03/24 04:21:01;;;;;;;0.30;0.30;;;-0.10;99.90;;;;;;5094589;28;20175;-69
2021/03/24 04:23:32;;;;;;;0.30;0.30;;;-0.10;99.90;;;;;;5094240;28;20193;-70
2021/03/24 04:26:05;;;;;;;0.30;0.30;;;-0.10;99.90;;;;;;5092683;28;20227;-70
2021/03/24 04:28:35;;;;;;;0.40;0.40;;;-0.10;99.90;;;;;;5094005;28;20271;-68
2021/03/24 04:31:06;;;;;;;0.30;0.30;;;0.00;99.90;;;;;;5092488;28;20733;-70
2021/03/24 04:33:32;;;;;;;0.40;0.40;;;0.00;99.90;;;;;;5093702;28;20251;-70
2021/03/24 04:36:02;;;;;;;0.30;0.30;;;0.00;99.90;;;;;;5093663;28;20211;-68
2021/03/24 04:38:33;;;;;;;1.10;1.05;;;0.00;99.90;;;;;;5093978;28;20175;-69
2021/03/24 04:41:06;;;;;;;0.40;0.40;;;0.00;99.90;;;;;;5092590;28;20512;-70
2021/03/24 04:43:36;;;;;;;0.30;0.30;;;0.00;99.90;;;;;;5092181;28;20270;-69
2021/03/24 04:46:18;;;;;;;0.30;0.30;;;0.00;99.90;;;;;;5093514;28;20267;-71
2021/03/24 04:49:06;;;;;;;0.40;0.40;;;0.00;99.90;;;;;;5093705;28;20188;-70
2021/03/24 04:51:36;;;;;;;0.40;0.40;;;-0.10;99.90;;;;;;5093433;28;20566;-70
2021/03/24 04:54:20;;;;;;;0.30;0.30;;;-0.10;99.90;;;;;;5093199;28;20176;-70
2021/03/24 04:56:55;;;;;;;0.40;0.40;;;-0.10;99.90;;;;;;5093078;28;20187;-72
2021/03/24 04:59:38;;;;;;;0.40;0.40;;;-0.20;99.90;;;;;;5094063;28;20167;-71
2021/03/24 05:02:13;;;;;;;0.30;0.30;;;-0.20;99.90;;;;;;5092706;28;20183;-70
2021/03/24 05:04:58;;;;;;;0.35;0.35;;;-0.20;99.90;;;;;;5093391;28;20168;-69
2021/03/24 05:07:54;;;;;;;0.40;0.40;;;-0.20;99.90;;;;;;5093249;28;20658;-69
2021/03/24 05:10:26;;;;;;;0.52;0.52;;;-0.20;99.90;;;;;;5091535;28;20622;-70
2021/03/24 05:13:08;;;;;;;0.40;0.40;;;-0.30;99.90;;;;;;5093350;28;20172;-71
2021/03/24 05:15:37;;;;;;;0.30;0.30;;;-0.30;99.90;;;;;;5092733;28;20584;-70
2021/03/24 05:18:05;;;;;;;0.40;0.40;;;-0.30;99.90;;;;;;5091691;28;20279;-70
2021/03/24 05:21:00;;;;;;;0.40;0.40;;;-0.30;99.90;;;;;;5093132;28;20184;-70
2021/03/24 05:23:26;;;;;;;0.35;0.35;;;-0.30;99.90;;;;;;5093072;28;20180;-70
2021/03/24 05:26:18;;;;;;;0.40;0.40;;;-0.30;99.90;;;;;;5092364;28;20573;-68
2021/03/24 05:28:47;;;;;;;0.30;0.30;;;-0.30;99.90;;;;;;5080067;28;20343;-69
2021/03/24 05:31:19;;;;;;;0.50;0.50;;;-0.20;99.90;;;;;;5086039;28;20290;-71
2021/03/24 05:33:50;;;;;;;0.40;0.40;;;-0.20;99.90;;;;;;5092227;28;20210;-71
2021/03/24 05:36:39;;;;;;;0.40;0.40;;;-0.10;99.90;;;;;;5093187;28;20271;-70
2021/03/24 05:39:26;;;;;;;0.40;0.40;;;0.00;99.90;;;;;;5093086;28;20176;-72
2021/03/24 05:42:29;;;;;;;0.40;0.40;;;0.10;99.90;;;;;;5093203;28;20539;-73
2021/03/24 05:45:27;;;;;;;0.40;0.40;;;0.20;99.90;;;;;;5088490;28;20206;-71
2021/03/24 05:48:03;;;;;;;0.30;0.30;;;0.30;99.90;;;;;;5092801;28;20243;-72
2021/03/24 05:50:47;;;;;;;0.47;0.47;;;0.40;99.90;;;;;;5092748;28;20176;-71
2021/03/24 05:53:50;;;;;;;3.60;2.58;;;0.50;99.90;;;;;;5092087;28;20179;-68
2021/03/24 05:56:25;;;;;;;0.40;0.40;;;0.80;99.90;;;;;;5093004;28;20203;-71
2021/03/24 05:59:09;;;;;;;0.50;0.50;;;1.00;99.90;;;;;;5092658;28;20169;-72
2021/03/24 06:01:47;;;;;;;0.30;0.30;;;1.10;99.90;;;;;;5093092;28;20183;-70
2021/03/24 06:04:40;;;;;;;0.45;0.45;;;1.30;99.90;;;;;;5092400;28;20171;-69
2021/03/24 06:07:43;;;;;;;0.40;0.40;;;1.40;99.90;;;;;;5071425;28;20667;-70
2021/03/24 06:10:57;;;;;;;0.30;0.30;;;1.60;99.90;;;;;;5073622;28;20208;-70
2021/03/24 06:13:47;;;;;;;0.40;0.40;;;1.90;99.90;;;;;;5042477;28;20679;-76
2021/03/24 06:16:21;;;;;;;0.40;0.40;;;2.20;99.90;;;;;;5054360;28;20204;-73
2021/03/24 06:19:16;;;;;;;0.60;0.60;;;2.40;99.90;;;;;;5053780;28;20204;-73
2021/03/24 06:22:01;;;;;;;0.30;0.30;;;2.60;99.90;;;;;;5054334;28;20174;-70
2021/03/24 06:25:05;;;;;;;0.30;0.30;;;2.90;99.90;;;;;;5053753;28;20213;-71
2021/03/24 06:27:56;;;;;;;0.30;0.30;;;3.10;99.90;;;;;;5037495;28;20170;-71
2021/03/24 06:30:36;;;;;;;0.40;0.40;;;3.20;99.90;;;;;;5026191;28;20265;-69
2021/03/24 06:33:10;;;;;;;0.50;0.50;;;3.40;99.90;;;;;;5040040;28;20185;-72
2021/03/24 06:36:03;;;;;;;0.30;0.30;;;3.60;99.90;;;;;;5052595;28;20197;-71
2021/03/24 06:38:42;;;;;;;0.50;0.50;;;3.80;99.90;;;;;;5053686;28;20185;-71
2021/03/24 06:41:36;;;;;;;0.93;0.88;;;4.00;99.90;;;;;;5051466;28;20173;-71
2021/03/24 06:44:32;;;;;;;0.30;0.30;;;4.20;99.90;;;;;;5071278;28;20172;-70
2021/03/24 06:47:03;;;;;;;0.55;0.52;;;4.60;99.90;;;;;;5094615;28;20207;-71
2021/03/24 06:50:18;;;;;;;0.40;0.40;;;4.90;99.90;;;;;;5094185;28;20534;-72
2021/03/24 06:53:05;;;;;;;0.47;0.47;;;5.20;99.90;;;;;;5087589;28;20345;-69
2021/03/24 06:56:07;;;;;;;0.93;0.93;;;5.60;99.90;;;;;;5095562;28;20191;-72
2021/03/24 06:59:32;;;;;;;0.70;0.63;;;5.70;99.90;;;;;;5096143;28;20236;-70
2021/03/24 07:02:16;;;;;;;0.30;0.30;;;5.90;99.90;;;;;;5081212;28;20186;-69
2021/03/24 07:05:18;;;;;;;1.75;1.65;;;6.10;99.90;;;;;;5095138;28;20172;-68
2021/03/24 07:08:08;;;;;;;0.50;0.40;;;6.40;99.90;;;;;;5095897;28;20291;-66
2021/03/24 07:10:52;;;;;;;1.65;1.02;;;6.80;99.90;;;;;;5095775;28;20256;-68
2021/03/24 07:13:42;;;;;;;1.88;0.73;;;7.10;99.90;;;;;;5095696;28;20160;-67
2021/03/24 07:16:33;;;;;;;1.70;0.30;;;7.20;99.90;;;;;;5093971;28;20191;-68
2021/03/24 07:19:23;;;;;;;2.25;0.77;;;7.60;99.90;;;;;;5095494;28;20187;-69
2021/03/24 07:22:10;;;;;;;2.30;0.30;;;8.30;99.90;;;;;;5095625;28;20195;-68
2021/03/24 07:25:12;;;;;;;2.90;0.85;;;8.90;99.70;;;;;;5094625;28;20179;-66
2021/03/24 07:27:47;;;;;;;3.60;0.80;;;9.70;97.80;;;;;;5095295;28;20171;-67
2021/03/24 07:30:40;;;;;;;3.85;0.77;;;10.00;96.10;;;;;;5095304;28;20182;-69
2021/03/24 07:33:09;;;;;;;3.85;0.68;;;10.40;96.00;;;;;;5095492;28;20183;-70
2021/03/24 07:35:54;;;;;;;3.90;0.60;;;10.90;94.90;;;;;;5092841;28;20208;-70
2021/03/24 07:38:45;;;;;;;4.30;1.60;;;11.30;93.90;;;;;;5094508;28;20410;-69
2021/03/24 07:41:42;;;;;;;3.80;0.63;;;11.70;92.90;;;;;;5084596;28;20423;-68
2021/03/24 07:44:29;;;;;;;4.80;1.20;;;12.20;92.30;;;;;;5093021;28;20515;-69
2021/03/24 07:47:30;;;;;;;3.80;0.40;;;12.30;91.70;;;;;;5094963;28;20420;-65
2021/03/24 07:50:20;;;;;;;4.27;1.43;;;12.40;91.80;;;;;;5093465;28;20417;-68
2021/03/24 07:52:59;;;;;;;4.00;0.80;;;13.00;91.30;;;;;;5094840;28;20426;-70
2021/03/24 07:55:38;;;;;;;4.30;0.93;;;13.70;90.40;;;;;;5092873;28;20449;-68
2021/03/24 07:58:25;;;;;;;4.00;0.63;;;14.40;86.70;;;;;;5093046;28;20493;-66
2021/03/24 08:01:07;;;;;;;3.80;0.70;;;15.00;85.20;;;;;;5088961;28;20428;-64
2021/03/24 08:03:59;;;;;;;5.63;1.43;;;15.70;82.90;;;;;;5090599;28;20421;-64
2021/03/24 08:06:50;;;;;;;3.70;0.40;;;16.30;80.10;;;;;;5092061;28;20520;-65
2021/03/24 08:09:27;;;;;;;4.83;2.00;;;16.70;78.00;;;;;;5086921;28;20476;-67
2021/03/24 08:12:23;;;;;;;3.87;1.20;;;16.90;76.40;;;;;;5086150;28;20458;-65
2021/03/24 08:15:21;;;;;;;6.80;2.60;;;17.40;76.30;;;;;;5085473;28;20515;-67
2021/03/24 08:18:05;;;;;;;3.90;0.73;;;17.60;73.90;;;;;;5094150;28;20844;-66
2021/03/24 08:20:41;;;;;;;3.40;0.40;;;17.30;72.70;;;;;;5093771;28;20843;-64
2021/03/24 08:23:34;;;;;;;3.30;0.50;;;17.80;71.70;;;;;;5094148;28;20426;-69
2021/03/24 08:26:07;;;;;;;3.97;1.23;;;18.50;70.30;;;;;;5093774;28;20418;-66
2021/03/24 08:28:39;;;;;;;3.80;0.67;;;19.10;68.70;;;;;;5093953;28;20377;-65
2021/03/24 08:31:36;;;;;;;4.13;0.90;;;19.70;67.60;;;;;;5093947;28;20448;-67
2021/03/24 08:34:22;;;;;;;3.47;1.03;;;20.40;63.10;;;;;;5072078;28;20444;-67
2021/03/24 08:37:13;;;;;;;3.17;0.70;;;20.50;61.30;;;;;;5093562;28;20418;-66
2021/03/24 08:39:59;;;;;;;3.10;0.70;;;20.80;59.80;;;;;;5093881;28;20448;-64
2021/03/24 08:42:47;;;;;;;5.37;2.03;;;21.10;59.90;;;;;;5093876;28;20485;-66
2021/03/24 08:45:25;;;;;;;2.97;0.50;;;20.40;58.70;;;;;;5093373;28;20883;-66
2021/03/24 08:47:56;;;;;;;3.43;1.27;;;19.80;59.30;;;;;;5093775;28;20393;-66
2021/03/24 08:50:29;;;;;;;2.80;0.43;;;19.80;60.00;;;;;;5093818;28;20943;-66
2021/03/24 08:53:21;;;;;;;3.90;2.10;;;20.10;61.40;;;;;;5094018;28;20402;-68
2021/03/24 08:55:49;;;;;;;3.30;1.00;;;20.50;59.40;;;;;;5093255;28;20404;-66
2021/03/24 08:58:27;;;;;;;3.03;0.97;;;20.60;58.60;;;;;;5093891;28;20398;-67
2021/03/24 09:01:17;;;;;;;3.53;1.33;;;20.80;59.40;;;;;;5093600;28;20947;-67
2021/03/24 09:03:45;;;;;;;3.57;1.10;;;21.10;57.80;;;;;;5093478;28;20798;-68
2021/03/24 09:06:48;;;;;;;4.63;1.10;;;21.30;57.80;;;;;;5093397;28;20405;-67
2021/03/24 09:09:47;;;;;;;3.13;0.83;;;21.50;57.90;;;;;;5093749;28;20377;-67
2021/03/24 09:12:21;;;;;;;3.80;2.00;;;22.00;57.00;;;;;;5093258;28;20472;-68
2021/03/24 09:14:54;;;;;;;3.57;1.80;;;22.80;55.30;;;;;;5093136;28;20418;-67
2021/03/24 09:17:35;;;;;;;4.40;1.17;;;23.50;54.30;;;;;;5093260;28;20480;-67
2021/03/24 09:20:15;;;;;;;3.20;1.93;;;24.00;53.90;;;;;;5093282;28;20974;-67
2021/03/24 09:23:05;;;;;;;4.13;2.17;;;23.70;53.10;;;;;;5093356;28;20874;-68
2021/03/24 09:25:41;;;;;;;4.83;2.03;;;23.60;53.60;;;;;;5092934;28;20513;-69
2021/03/24 09:28:29;;;;;;;2.80;1.17;;;23.00;53.70;;;;;;5093486;28;20369;-68
2021/03/24 09:31:12;;;;;;;2.70;1.20;;;22.70;53.30;;;;;;5093397;28;20446;-70
2021/03/24 09:34:03;;;;;;;3.10;1.77;;;22.90;55.30;;;;;;5092867;28;20777;-70
2021/03/24 09:37:05;;;;;;;2.70;0.73;;;23.70;53.60;;;;;;5091646;28;20412;-68
2021/03/24 09:39:48;;;;;;;4.10;2.30;;;24.40;52.80;;;;;;5093338;28;20416;-69
2021/03/24 09:42:45;;;;;;;3.27;1.43;;;24.70;52.20;;;;;;5093295;28;20489;-70
2021/03/24 09:45:17;;;;;;;3.67;1.87;;;24.20;51.20;;;;;;5082485;28;20381;-68
2021/03/24 09:48:13;;;;;;;2.87;1.60;;;24.00;51.50;;;;;;5085125;28;20472;-69
2021/03/24 09:51:03;;;;;;;2.90;0.77;;;24.10;51.60;;;;;;5080834;28;20472;-70
2021/03/24 09:53:32;;;;;;;3.27;1.27;;;24.20;52.40;;;;;;5076802;28;20404;-69
2021/03/24 09:56:06;;;;;;;2.90;1.27;;;24.40;52.00;;;;;;5075616;28;20400;-70
2021/03/24 09:58:43;;;;;;;5.20;2.07;;;24.70;51.60;;;;;;5075446;28;20388;-70
2021/03/24 10:01:38;;;;;;;4.13;1.27;;;24.40;51.40;;;;;;5075463;28;20943;-70
2021/03/24 10:04:22;;;;;;;3.80;1.80;;;23.70;50.80;;;;;;5076693;28;20936;-68
2021/03/24 10:07:02;;;;;;;3.60;1.57;;;23.10;51.90;;;;;;5076585;28;20427;-68
2021/03/24 10:09:34;;;;;;;2.67;0.80;;;23.00;52.50;;;;;;5077089;28;20771;-69
2021/03/24 10:12:06;;;;;;;2.57;0.87;;;23.30;51.20;;;;;;5076957;28;20411;-70
2021/03/24 10:14:38;;;;;;;3.17;0.83;;;23.10;51.30;;;;;;5076433;28;20905;-70
2021/03/24 10:17:10;;;;;;;3.63;1.17;;;22.90;51.30;;;;;;5076349;28;20408;-71
2021/03/24 10:19:43;;;;;;;3.13;1.30;;;23.20;50.00;;;;;;5076528;28;20404;-70
2021/03/24 10:22:21;;;;;;;2.80;0.90;;;23.00;50.90;;;;;;5076683;28;20446;-70
2021/03/24 10:25:01;;;;;;;3.93;1.63;;;23.40;49.80;;;;;;5076158;28;20452;-69
2021/03/24 10:27:30;;;;;;;2.97;1.23;;;23.80;49.60;;;;;;5076745;28;20402;-70
2021/03/24 10:29:56;;;;;;;3.50;2.10;;;24.10;48.90;;;;;;5074999;28;20410;-70
2021/03/24 10:32:37;;;;;;;2.73;1.17;;;23.70;49.80;;;;;;5076545;28;20898;-68
2021/03/24 10:35:29;;;;;;;2.60;1.07;;;23.60;50.00;;;;;;5075830;28;20225;-70
2021/03/24 10:38:13;;;;;;;2.50;1.17;;;23.60;49.10;;;;;;5076169;28;20475;-70
2021/03/24 10:40:46;;;;;;;2.80;0.93;;;23.40;48.60;;;;;;5076019;28;20437;-69
2021/03/24 10:43:19;;;;;;;4.40;2.40;;;22.80;50.10;;;;;;5076306;28;20810;-70
2021/03/24 10:46:01;;;;;;;2.20;0.30;;;22.50;50.70;;;;;;5074463;28;20432;-70
2021/03/24 10:48:34;;;;;;;2.20;0.40;;;22.40;50.10;;;;;;5076100;28;20407;-69
2021/03/24 10:51:06;;;;;;;2.40;0.80;;;21.70;50.70;;;;;;5076694;28;20800;-70
2021/03/24 10:53:36;;;;;;;2.67;1.07;;;21.30;51.40;;;;;;5076132;28;20416;-69
2021/03/24 10:56:27;;;;;;;2.60;0.60;;;21.10;51.70;;;;;;5075450;28;20433;-71
2021/03/24 10:59:11;;;;;;;2.60;0.90;;;20.80;52.90;;;;;;5074802;28;20406;-70
2021/03/24 11:01:53;;;;;;;2.63;0.50;;;20.60;52.80;;;;;;5075718;28;20446;-69
2021/03/24 11:04:28;;;;;;;3.43;0.97;;;20.80;53.80;;;;;;5075508;28;20402;-70
2021/03/24 11:07:10;;;;;;;2.70;0.60;;;20.90;52.80;;;;;;5075601;28;20418;-68
2021/03/24 11:09:39;;;;;;;2.40;0.60;;;20.90;53.10;;;;;;5075534;28;20395;-70
2021/03/24 11:12:07;;;;;;;2.40;0.63;;;20.70;53.50;;;;;;5075438;28;20444;-70
2021/03/24 11:14:40;;;;;;;3.07;1.10;;;20.50;52.70;;;;;;5075160;28;20432;-70
2021/03/24 11:17:16;;;;;;;2.60;0.50;;;20.20;52.90;;;;;;5075287;28;20508;-71
2021/03/24 11:19:45;;;;;;;3.87;1.27;;;19.10;55.00;;;;;;5075244;28;20456;-69
2021/03/24 11:22:46;;;;;;;2.47;0.57;;;18.10;56.60;;;;;;5075324;28;20458;-71
2021/03/24 11:25:20;;;;;;;2.70;0.83;;;16.90;57.80;;;;;;5072388;28;20419;-69
2021/03/24 11:28:00;;;;;;;2.70;0.83;;;15.80;58.90;;;;;;5075260;28;20405;-69
2021/03/24 11:30:39;;;;;;;3.30;1.27;;;15.10;61.70;;;;;;5075208;28;20444;-69
2021/03/24 11:33:26;;;;;;;2.60;0.70;;;14.70;61.80;;;;;;5075224;28;20403;-69
2021/03/24 11:36:16;;;;;;;2.50;0.70;;;14.40;62.70;;;;;;5074905;28;20427;-69
2021/03/24 11:38:45;;;;;;;2.50;0.50;;;14.20;65.90;;;;;;5075219;28;20402;-68
2021/03/24 11:41:26;;;;;;;2.60;0.40;;;14.00;65.70;;;;;;5074922;28;20457;-68
2021/03/24 11:44:14;;;;;;;3.23;1.10;;;13.90;67.90;;;;;;5074774;28;20449;-70
2021/03/24 11:46:43;;;;;;;2.57;0.60;;;13.80;67.80;;;;;;5057297;28;20491;-69
2021/03/24 11:49:15;;;;;;;2.50;0.30;;;13.80;67.60;;;;;;5074680;28;20413;-70
2021/03/24 11:52:10;;;;;;;3.03;1.20;;;13.80;68.40;;;;;;5074858;28;20406;-69
2021/03/24 11:54:50;;;;;;;3.33;0.40;;;13.80;70.00;;;;;;5074547;28;20410;-69
2021/03/24 11:57:26;;;;;;;2.40;0.40;;;14.10;68.60;;;;;;5073256;28;20435;-70
2021/03/24 11:59:58;;;;;;;2.50;0.40;;;14.20;68.80;;;;;;5074752;28;20400;-69
2021/03/24 12:02:38;;;;;;;3.53;1.03;;;14.20;67.50;;;;;;5074530;28;20456;-69
2021/03/24 12:05:07;;;;;;;2.70;0.77;;;14.20;67.60;;;;;;5074204;28;20444;-69
2021/03/24 12:07:38;;;;;;;2.83;0.97;;;14.20;68.20;;;;;;5074749;28;20405;-71
2021/03/24 12:10:30;;;;;;;2.57;0.40;;;14.20;67.30;;;;;;5074039;28;20399;-67
2021/03/24 12:13:01;;;;;;;3.63;1.23;;;14.20;67.90;;;;;;5074457;28;20477;-67
2021/03/24 12:15:32;;;;;;;2.80;0.80;;;14.20;66.30;;;;;;5073604;28;20430;-69
2021/03/24 12:18:11;;;;;;;3.50;0.63;;;14.10;66.20;;;;;;5073954;28;20776;-68
2021/03/24 12:20:51;;;;;;;2.70;0.50;;;14.00;66.70;;;;;;5074230;28;20504;-68
2021/03/24 12:23:18;;;;;;;5.27;0.87;;;13.90;68.10;;;;;;5072369;28;20420;-68
2021/03/24 12:25:52;;;;;;;2.63;0.30;;;13.90;70.40;;;;;;5073449;28;20428;-67
2021/03/24 12:28:47;;;;;;;2.70;0.60;;;14.00;69.00;;;;;;5072747;28;20874;-67
2021/03/24 12:31:16;;;;;;;2.70;0.40;;;14.00;69.10;;;;;;5074070;28;20405;-68
2021/03/24 12:33:58;;;;;;;2.63;0.40;;;14.10;70.80;;;;;;5073392;28;20409;-69
2021/03/24 12:36:27;;;;;;;2.60;0.30;;;14.20;69.70;;;;;;5073727;28;20434;-69
2021/03/24 12:39:06;;;;;;;2.60;0.40;;;14.20;68.00;;;;;;5072502;28;20441;-69
2021/03/24 12:41:43;;;;;;;2.70;0.40;;;14.20;68.00;;;;;;5073843;28;20455;-68
2021/03/24 12:44:11;;;;;;;2.60;0.40;;;14.20;68.90;;;;;;5073361;28;20459;-68
2021/03/24 12:46:49;;;;;;;2.60;0.30;;;14.10;68.80;;;;;;5072215;28;20429;-68
2021/03/24 12:49:22;;;;;;;2.70;0.60;;;14.20;68.50;;;;;;5072406;28;20919;-69
2021/03/24 12:51:57;;;;;;;3.30;1.07;;;14.20;68.80;;;;;;5073854;28;20906;-68
2021/03/24 12:54:26;;;;;;;2.70;0.50;;;14.10;65.80;;;;;;5073407;28;20452;-67
2021/03/24 12:57:32;;;;;;;2.60;0.30;;;13.90;69.80;;;;;;5073502;28;20781;-68
2021/03/24 13:00:31;;;;;;;3.20;1.13;;;13.90;68.50;;;;;;5067807;28;20463;-70
2021/03/24 13:03:15;;;;;;;2.70;0.40;;;13.90;67.80;;;;;;5073641;28;20412;-67
2021/03/24 13:05:48;;;;;;;2.63;0.40;;;13.90;67.30;;;;;;5072941;28;20458;-68
2021/03/24 13:08:54;;;;;;;2.70;0.30;;;14.00;68.20;;;;;;5073306;28;20402;-68
2021/03/24 13:11:41;;;;;;;2.70;0.50;;;14.00;67.00;;;;;;5057131;28;20490;-69
2021/03/24 13:14:16;;;;;;;2.90;0.70;;;14.10;68.10;;;;;;5071700;28;20449;-68
2021/03/24 13:17:09;;;;;;;2.67;0.40;;;14.00;66.20;;;;;;5071802;28;20435;-68
2021/03/24 13:19:57;;;;;;;2.67;0.40;;;14.00;67.10;;;;;;5065836;28;20918;-69
2021/03/24 13:22:46;;;;;;;2.90;1.07;;;14.20;69.40;;;;;;5072507;28;20441;-67
2021/03/24 13:25:23;;;;;;;2.90;0.80;;;14.30;69.40;;;;;;5072923;28;20894;-68
2021/03/24 13:28:14;;;;;;;2.70;0.57;;;14.40;69.60;;;;;;5073168;28;20818;-68
2021/03/24 13:31:08;;;;;;;2.90;0.70;;;14.40;68.20;;;;;;5072991;28;20401;-69
2021/03/24 13:33:43;;;;;;;4.50;1.00;;;14.40;71.00;;;;;;5071826;28;20405;-68
2021/03/24 13:36:25;;;;;;;2.70;0.40;;;14.50;70.70;;;;;;5073264;28;20465;-68
2021/03/24 13:39:15;;;;;;;4.23;1.17;;;14.50;68.90;;;;;;5073195;28;20748;-69
2021/03/24 13:42:08;;;;;;;3.83;2.20;;;14.50;68.50;;;;;;5072873;28;20445;-69
2021/03/24 13:44:47;;;;;;;2.70;0.40;;;14.40;69.40;;;;;;5066864;28;20429;-68
2021/03/24 13:47:31;;;;;;;2.70;0.40;;;14.40;70.00;;;;;;5073028;28;20922;-69